ADDS METAR Data INFO
IDs: Format: Raw Decoded Include TAF

Data at: 1650 UTC 26 Apr 2018

METAR for:KLCK (Rickenbacker AFB, OH, US)
Text:KLCK 261635Z AUTO 15004KT 10SM SCT030 SCT036 SCT044 15/08 A2993 RMK AO2 T01450076
Temperature: 14.5°C ( 58°F)
Dewpoint: 7.6°C ( 46°F) [RH = 63%]
Pressure (altimeter):29.93 inches Hg (1013.6 mb)
Winds:from the SSE (150 degrees) at 5 MPH (4 knots; 2.1 m/s)
Visibility:10 or more sm (16+ km)
Ceiling:at least 12,000 feet AGL
Clouds: scattered clouds at 3000 feet AGL, scattered clouds at 3600 feet AGL, scattered clouds at 4400 feet AGL
QC Flag:automated observation with no human augmentation